createdAt,value
2023-03-11T00:00:41.556Z,44.36
2023-03-11T00:03:09.880Z,44.56
2023-03-11T00:05:40.281Z,44.66
2023-03-11T00:08:11.871Z,45.09
2023-03-11T00:10:42.301Z,45.55
2023-03-11T00:13:12.952Z,46.05
2023-03-11T00:15:41.887Z,46.35
2023-03-11T00:18:10.313Z,46.59
2023-03-11T00:20:42.331Z,46.39
2023-03-11T00:23:12.507Z,46.28
2023-03-11T00:25:40.575Z,46.45
2023-03-11T00:28:10.493Z,46.57
2023-03-11T00:30:39.244Z,46.18
2023-03-11T00:33:09.302Z,46.40
2023-03-11T00:35:37.637Z,46.29
2023-03-11T00:38:08.229Z,46.49
2023-03-11T00:40:36.447Z,46.00
2023-03-11T00:43:04.915Z,46.52
2023-03-11T00:45:32.760Z,46.65
2023-03-11T00:48:01.000Z,46.39
2023-03-11T00:50:33.280Z,46.60
2023-03-11T00:53:01.961Z,46.82
2023-03-11T00:55:32.269Z,46.79
2023-03-11T00:58:03.860Z,46.44
2023-03-11T01:00:41.526Z,46.16
2023-03-11T01:03:11.182Z,46.01
2023-03-11T01:05:39.455Z,45.87
2023-03-11T01:08:07.033Z,46.03
2023-03-11T01:10:35.857Z,45.85
2023-03-11T01:13:04.879Z,45.67
2023-03-11T01:15:35.645Z,46.12
2023-03-11T01:18:04.998Z,46.24
2023-03-11T01:20:35.716Z,45.68
2023-03-11T01:23:03.977Z,45.92
2023-03-11T01:25:32.148Z,45.96
2023-03-11T01:28:00.021Z,46.32
2023-03-11T01:30:29.371Z,46.28
2023-03-11T01:32:58.021Z,46.12
2023-03-11T01:35:27.861Z,46.30
2023-03-11T01:37:56.520Z,46.14
2023-03-11T01:40:30.523Z,46.35
2023-03-11T01:43:01.323Z,46.77
2023-03-11T01:46:05.058Z,47.07
2023-03-11T01:48:33.283Z,47.20
2023-03-11T01:51:01.168Z,47.06
2023-03-11T01:53:29.427Z,47.36
2023-03-11T01:55:58.199Z,47.33
2023-03-11T01:58:32.905Z,47.36
2023-03-11T02:01:03.258Z,47.46
2023-03-11T02:03:33.515Z,47.66
2023-03-11T02:06:04.632Z,47.85
2023-03-11T02:08:34.330Z,48.00
2023-03-11T02:11:06.654Z,48.02
2023-03-11T02:13:36.247Z,48.07
2023-03-11T02:16:04.899Z,48.13
2023-03-11T02:18:33.344Z,48.51
2023-03-11T02:21:15.540Z,48.74
2023-03-11T02:23:49.293Z,49.04
2023-03-11T02:26:27.932Z,49.28
2023-03-11T02:28:58.674Z,49.34
2023-03-11T02:31:29.063Z,49.88
2023-03-11T02:34:01.796Z,50.27
2023-03-11T02:36:39.303Z,50.00
2023-03-11T02:39:10.300Z,50.53
2023-03-11T02:41:44.324Z,50.85
2023-03-11T02:44:15.673Z,50.47
2023-03-11T02:46:44.456Z,50.95
2023-03-11T02:49:14.277Z,51.02
2023-03-11T02:51:41.996Z,51.43
2023-03-11T02:54:09.508Z,50.97
2023-03-11T02:56:38.493Z,51.32
2023-03-11T02:59:07.006Z,51.59
2023-03-11T03:01:35.382Z,51.49
2023-03-11T03:04:02.967Z,51.41
2023-03-11T03:06:33.041Z,51.60
2023-03-11T03:09:00.512Z,51.05
2023-03-11T03:11:28.750Z,52.19
2023-03-11T03:13:56.776Z,51.88
2023-03-11T03:16:25.799Z,51.72
2023-03-11T03:18:54.875Z,51.71
2023-03-11T03:21:22.428Z,51.66
2023-03-11T03:23:49.932Z,51.74
2023-03-11T03:26:17.396Z,51.65
2023-03-11T03:28:49.229Z,52.00
2023-03-11T03:31:17.164Z,52.32
2023-03-11T03:33:45.409Z,52.09
2023-03-11T03:36:15.164Z,52.36
2023-03-11T03:38:47.135Z,51.81
2023-03-11T03:41:16.317Z,51.94
2023-03-11T03:43:45.247Z,51.76
2023-03-11T03:46:14.128Z,52.54
2023-03-11T03:48:45.793Z,52.46
2023-03-11T03:51:15.039Z,52.30
2023-03-11T03:54:00.272Z,52.40
2023-03-11T03:56:28.647Z,52.04
2023-03-11T03:58:56.150Z,51.92
2023-03-11T04:01:26.918Z,51.92
2023-03-11T04:03:55.484Z,51.59
2023-03-11T04:06:26.850Z,52.36
2023-03-11T04:08:58.806Z,51.85
2023-03-11T04:11:33.671Z,52.21
2023-03-11T04:14:03.739Z,52.49
2023-03-11T04:16:33.462Z,52.13
2023-03-11T04:19:12.466Z,53.31
2023-03-11T04:21:40.126Z,52.77
2023-03-11T04:24:08.518Z,52.70
2023-03-11T04:26:38.290Z,52.55
2023-03-11T04:29:10.413Z,52.92
2023-03-11T04:31:43.017Z,53.26
2023-03-11T04:34:11.194Z,53.19
2023-03-11T04:36:41.134Z,53.40
2023-03-11T04:39:09.366Z,53.91
2023-03-11T04:41:42.588Z,54.37
2023-03-11T04:44:14.250Z,54.37
2023-03-11T04:46:42.262Z,54.58
2023-03-11T04:49:11.031Z,54.75
2023-03-11T04:51:38.808Z,55.28
2023-03-11T04:54:08.006Z,55.01
2023-03-11T04:56:35.988Z,55.36
2023-03-11T04:59:04.665Z,54.96
2023-03-11T05:01:35.276Z,55.24
2023-03-11T05:04:05.336Z,55.45
2023-03-11T05:06:32.852Z,54.95
2023-03-11T05:09:02.340Z,55.23
2023-03-11T05:11:31.471Z,55.36
2023-03-11T05:13:59.984Z,55.61
2023-03-11T05:16:27.632Z,56.13
2023-03-11T05:18:55.576Z,56.68
2023-03-11T05:21:23.755Z,56.62
2023-03-11T05:23:51.354Z,56.50
2023-03-11T05:26:18.949Z,56.38
2023-03-11T05:28:46.918Z,56.50
2023-03-11T05:31:15.188Z,56.83
2023-03-11T05:33:42.908Z,57.44
2023-03-11T05:36:13.426Z,57.14
2023-03-11T05:38:44.850Z,57.82
2023-03-11T05:41:15.239Z,57.75
2023-03-11T05:43:44.312Z,57.79
2023-03-11T05:46:13.087Z,57.75
2023-03-11T05:48:40.878Z,58.88
2023-03-11T05:51:10.613Z,58.45
2023-03-11T05:53:48.244Z,58.21
2023-03-11T05:56:22.752Z,58.06
2023-03-11T05:58:51.700Z,58.32
2023-03-11T06:01:20.916Z,59.01
2023-03-11T06:03:49.757Z,58.29
2023-03-11T06:06:17.942Z,58.00
2023-03-11T06:08:49.862Z,59.11
2023-03-11T06:11:19.167Z,58.40
2023-03-11T06:13:47.199Z,59.06
2023-03-11T06:16:15.912Z,60.13
2023-03-11T06:18:44.322Z,60.73
2023-03-11T06:21:17.844Z,60.45
2023-03-11T06:23:46.866Z,60.83
2023-03-11T06:26:18.212Z,60.89
2023-03-11T06:28:48.196Z,62.58
2023-03-11T06:31:25.461Z,62.63
2023-03-11T06:33:58.875Z,61.81
2023-03-11T06:36:26.995Z,61.33
2023-03-11T06:38:55.039Z,59.86
2023-03-11T06:41:25.991Z,59.15
2023-03-11T06:43:53.673Z,58.22
2023-03-11T06:46:23.932Z,57.03
2023-03-11T06:48:55.074Z,56.11
2023-03-11T06:51:24.770Z,55.43
2023-03-11T06:53:53.769Z,55.84
2023-03-11T06:56:23.723Z,54.83
2023-03-11T06:59:03.917Z,53.98
2023-03-11T07:01:33.692Z,53.39
2023-03-11T07:04:04.599Z,52.31
2023-03-11T07:06:33.057Z,52.37
2023-03-11T07:09:09.620Z,52.67
2023-03-11T07:11:42.630Z,51.34
2023-03-11T07:14:15.144Z,51.24
2023-03-11T07:16:48.110Z,51.14
2023-03-11T07:19:27.069Z,49.97
2023-03-11T07:21:55.055Z,49.84
2023-03-11T07:24:22.599Z,50.59
2023-03-11T07:26:50.557Z,49.97
2023-03-11T07:29:19.116Z,49.24
2023-03-11T07:31:47.362Z,48.73
2023-03-11T07:34:15.362Z,48.11
2023-03-11T07:36:43.029Z,47.29
2023-03-11T07:39:16.080Z,46.58
2023-03-11T07:41:44.914Z,45.60
2023-03-11T07:44:14.801Z,44.79
2023-03-11T07:46:43.481Z,44.53
2023-03-11T07:49:12.125Z,44.87
2023-03-11T07:51:44.027Z,45.40
2023-03-11T07:54:12.785Z,46.52
2023-03-11T07:56:40.655Z,46.30
2023-03-11T07:59:08.686Z,46.96
2023-03-11T08:01:40.627Z,47.89
2023-03-11T08:04:12.467Z,48.20
2023-03-11T08:06:44.154Z,48.55
2023-03-11T08:09:12.539Z,48.94
2023-03-11T08:11:40.448Z,49.04
2023-03-11T08:14:09.344Z,48.25
2023-03-11T08:16:37.350Z,48.49
2023-03-11T08:19:04.958Z,48.31
2023-03-11T08:21:32.642Z,49.74
2023-03-11T08:24:02.412Z,50.68
2023-03-11T08:26:32.028Z,49.81
2023-03-11T08:29:00.407Z,49.96
2023-03-11T08:31:31.141Z,49.32
2023-03-11T08:34:02.603Z,49.68
2023-03-11T08:36:31.463Z,49.65
2023-03-11T08:38:59.780Z,50.41
2023-03-11T08:41:28.340Z,51.11
2023-03-11T08:43:56.535Z,51.21
2023-03-11T08:46:30.390Z,52.12
2023-03-11T08:49:01.042Z,52.55
2023-03-11T08:51:31.998Z,53.83
2023-03-11T08:54:01.262Z,58.17
2023-03-11T08:56:29.024Z,57.37
2023-03-11T08:58:57.013Z,57.16
2023-03-11T09:01:25.686Z,53.98
2023-03-11T09:03:53.312Z,60.26
2023-03-11T09:06:21.958Z,58.96
2023-03-11T09:08:50.246Z,58.33
2023-03-11T09:11:19.296Z,54.88
2023-03-11T09:13:47.319Z,52.85
2023-03-11T09:16:18.162Z,49.13
2023-03-11T09:18:46.163Z,48.85
2023-03-11T09:21:14.854Z,47.73
2023-03-11T09:23:44.543Z,46.82
2023-03-11T09:26:13.340Z,44.87
2023-03-11T09:28:42.031Z,48.17
2023-03-11T09:31:10.070Z,46.66
2023-03-11T09:33:42.986Z,47.07
2023-03-11T09:36:14.380Z,44.92
2023-03-11T09:38:43.756Z,44.84
2023-03-11T09:41:17.489Z,43.63
2023-03-11T09:44:00.524Z,42.58
2023-03-11T09:46:40.382Z,44.32
2023-03-11T09:49:16.778Z,42.89
2023-03-11T09:52:01.822Z,42.07
2023-03-11T09:54:35.451Z,42.13
2023-03-11T09:57:04.836Z,42.69
2023-03-11T09:59:33.227Z,41.34
2023-03-11T10:02:00.997Z,41.08
2023-03-11T10:04:38.924Z,41.71
2023-03-11T10:07:15.432Z,42.07
2023-03-11T10:09:56.739Z,40.80
2023-03-11T10:12:57.697Z,40.22
2023-03-11T10:15:48.283Z,43.74
2023-03-11T10:18:55.160Z,45.66
2023-03-11T10:22:11.525Z,46.96
2023-03-11T10:24:57.843Z,48.57
2023-03-11T10:27:48.139Z,47.76
2023-03-11T10:30:40.987Z,45.55
2023-03-11T10:33:32.482Z,47.96
2023-03-11T10:36:06.790Z,49.79
2023-03-11T10:38:46.702Z,50.98
2023-03-11T10:41:35.762Z,52.47
2023-03-11T10:44:14.310Z,54.42
2023-03-11T10:46:42.580Z,53.88
2023-03-11T10:49:15.544Z,51.90
2023-03-11T10:51:49.211Z,54.14
2023-03-11T10:54:22.794Z,55.42
2023-03-11T10:56:56.121Z,55.19
2023-03-11T10:59:30.284Z,54.84
2023-03-11T11:02:04.284Z,54.33
2023-03-11T11:04:40.670Z,53.89
2023-03-11T11:07:22.342Z,51.29
2023-03-11T11:10:09.749Z,53.51
2023-03-11T11:13:01.285Z,49.68
2023-03-11T11:15:37.666Z,47.36
2023-03-11T11:18:15.999Z,46.63
2023-03-11T11:21:01.318Z,42.09
2023-03-11T11:23:42.419Z,38.76
2023-03-11T11:26:24.305Z,39.93
2023-03-11T11:29:09.947Z,42.82
2023-03-11T11:31:40.249Z,44.76
2023-03-11T11:34:26.653Z,40.11
2023-03-11T11:36:56.940Z,39.47
2023-03-11T11:39:27.684Z,36.35
2023-03-11T11:41:56.756Z,36.37
2023-03-11T11:44:32.417Z,37.77
2023-03-11T11:47:26.771Z,35.43
2023-03-11T11:50:02.486Z,35.16
2023-03-11T11:52:45.256Z,35.82
2023-03-11T11:55:30.924Z,38.44
2023-03-11T11:57:58.616Z,35.54
2023-03-11T12:00:40.880Z,35.95
2023-03-11T12:03:37.253Z,37.06
2023-03-11T12:06:28.357Z,37.23
2023-03-11T12:09:11.249Z,36.87
2023-03-11T12:11:52.424Z,36.87
2023-03-11T12:14:40.482Z,37.18
2023-03-11T12:17:11.200Z,34.86
2023-03-11T12:20:00.647Z,34.40
2023-03-11T12:22:49.937Z,35.68
2023-03-11T12:25:32.625Z,35.39
2023-03-11T12:28:12.510Z,35.25
2023-03-11T12:30:48.279Z,35.55
2023-03-11T12:33:37.122Z,34.70
2023-03-11T12:36:07.277Z,36.75
2023-03-11T12:38:47.120Z,34.85
2023-03-11T12:41:14.533Z,34.55
2023-03-11T12:43:43.286Z,35.11
2023-03-11T12:46:17.626Z,35.26
2023-03-11T12:48:51.177Z,38.44
2023-03-11T12:51:28.459Z,37.23
2023-03-11T12:53:56.964Z,35.94
2023-03-11T12:56:25.024Z,35.92
2023-03-11T12:59:11.298Z,33.92
2023-03-11T13:02:03.946Z,32.53
2023-03-11T13:04:37.485Z,33.29
2023-03-11T13:07:16.117Z,34.55
2023-03-11T13:09:43.659Z,32.46
2023-03-11T13:12:40.271Z,31.54
2023-03-11T13:15:20.365Z,30.25
2023-03-11T13:18:12.934Z,29.87
2023-03-11T13:20:44.030Z,29.74
2023-03-11T13:23:14.575Z,30.60
2023-03-11T13:25:51.846Z,29.97
2023-03-11T13:28:26.768Z,29.47
2023-03-11T13:31:32.417Z,27.66
2023-03-11T13:34:29.357Z,26.27
2023-03-11T13:37:04.714Z,26.99
2023-03-11T13:39:32.299Z,26.59
2023-03-11T13:42:00.222Z,25.12
2023-03-11T13:44:36.962Z,22.99
2023-03-11T13:47:14.108Z,21.06
2023-03-11T13:49:48.300Z,21.34
2023-03-11T13:52:37.926Z,20.05
2023-03-11T13:55:17.584Z,21.50
2023-03-11T13:57:54.123Z,23.07
2023-03-11T14:00:28.638Z,22.80
2023-03-11T14:03:00.162Z,23.28
2023-03-11T14:05:31.953Z,22.61
2023-03-11T14:08:24.010Z,21.27
2023-03-11T14:11:01.134Z,20.97
2023-03-11T14:13:33.565Z,20.80
2023-03-11T14:16:06.457Z,21.05
2023-03-11T14:18:35.717Z,21.82
2023-03-11T14:21:05.937Z,21.83
2023-03-11T14:23:45.696Z,22.49
2023-03-11T14:26:17.539Z,21.87
2023-03-11T14:28:50.286Z,20.81
2023-03-11T14:31:40.228Z,20.35
2023-03-11T14:34:11.772Z,18.81
2023-03-11T14:36:44.352Z,20.09
2023-03-11T14:39:27.650Z,21.18
2023-03-11T14:41:58.093Z,22.25
2023-03-11T14:44:27.866Z,21.17
2023-03-11T14:47:24.134Z,21.54
2023-03-11T14:49:53.605Z,22.54
2023-03-11T14:52:33.367Z,23.89
2023-03-11T14:55:02.658Z,23.58
2023-03-11T14:57:54.954Z,26.60
2023-03-11T15:00:27.685Z,27.88
2023-03-11T15:03:13.940Z,27.41
2023-03-11T15:05:45.392Z,28.27
2023-03-11T15:08:13.388Z,28.24
2023-03-11T15:11:03.249Z,28.94
2023-03-11T15:13:31.823Z,28.19
2023-03-11T15:16:02.364Z,27.41
2023-03-11T15:18:32.647Z,28.20
2023-03-11T15:21:22.530Z,26.82
2023-03-11T15:24:06.737Z,28.87
2023-03-11T15:26:38.237Z,32.08
2023-03-11T15:29:17.376Z,32.72
2023-03-11T15:31:47.253Z,32.63
2023-03-11T15:34:17.565Z,32.16
2023-03-11T15:36:59.454Z,32.48
2023-03-11T15:39:32.950Z,30.41
2023-03-11T15:42:02.021Z,30.56
2023-03-11T15:44:34.359Z,32.14
2023-03-11T15:47:06.084Z,33.82
2023-03-11T15:49:34.023Z,33.77
2023-03-11T15:52:03.469Z,33.95
2023-03-11T15:54:31.286Z,37.87
2023-03-11T15:57:01.276Z,40.77
2023-03-11T15:59:30.026Z,43.26
2023-03-11T16:01:59.551Z,44.68
2023-03-11T16:04:27.504Z,45.81
2023-03-11T16:07:09.546Z,47.15
2023-03-11T16:09:37.179Z,48.44
2023-03-11T16:12:17.750Z,49.65
2023-03-11T16:14:46.971Z,49.65
2023-03-11T16:17:15.736Z,50.22
2023-03-11T16:19:43.843Z,50.75
2023-03-11T16:22:19.256Z,50.87
2023-03-11T16:24:50.088Z,50.58
2023-03-11T16:27:18.975Z,51.01
2023-03-11T16:29:47.137Z,52.02
2023-03-11T16:32:14.851Z,52.21
2023-03-11T16:34:42.403Z,52.42
2023-03-11T16:37:15.333Z,52.92
2023-03-11T16:39:43.442Z,54.50
2023-03-11T16:42:11.134Z,55.31
2023-03-11T16:44:38.804Z,54.95
2023-03-11T16:47:06.949Z,54.22
2023-03-11T16:49:34.457Z,55.16
2023-03-11T16:52:02.381Z,55.42
2023-03-11T16:54:30.391Z,55.92
2023-03-11T16:56:58.418Z,56.76
2023-03-11T16:59:25.945Z,57.33
2023-03-11T17:01:53.956Z,57.57
2023-03-11T17:04:21.991Z,58.23
2023-03-11T17:06:49.573Z,58.59
2023-03-11T17:09:17.584Z,59.93
2023-03-11T17:11:45.853Z,58.66
2023-03-11T17:14:16.769Z,59.79
2023-03-11T17:16:45.387Z,60.36
2023-03-11T17:19:13.518Z,61.16
2023-03-11T17:21:41.661Z,61.72
2023-03-11T17:24:11.071Z,61.98
2023-03-11T17:26:38.745Z,62.57
2023-03-11T17:29:06.816Z,63.00
2023-03-11T17:31:34.840Z,63.62
2023-03-11T17:34:03.187Z,64.83
2023-03-11T17:36:31.137Z,64.06
2023-03-11T17:38:59.332Z,65.18
2023-03-11T17:41:27.409Z,65.58
2023-03-11T17:43:55.496Z,65.90
2023-03-11T17:46:23.251Z,65.26
2023-03-11T17:48:51.792Z,65.27
2023-03-11T17:51:22.379Z,65.97
2023-03-11T17:53:50.146Z,66.27
2023-03-11T17:56:20.369Z,67.81
2023-03-11T17:58:50.694Z,67.91
2023-03-11T18:01:24.314Z,68.19
2023-03-11T18:03:52.361Z,68.41
2023-03-11T18:06:22.251Z,68.23
2023-03-11T18:08:50.617Z,69.11
2023-03-11T18:11:22.015Z,69.66
2023-03-11T18:13:50.624Z,70.45
2023-03-11T18:16:25.034Z,70.93
2023-03-11T18:18:55.157Z,70.91
2023-03-11T18:21:25.932Z,71.44
2023-03-11T18:23:55.391Z,71.63
2023-03-11T18:26:25.008Z,70.74
2023-03-11T18:28:54.518Z,69.80
2023-03-11T18:31:24.372Z,70.44
2023-03-11T18:33:55.941Z,69.90
2023-03-11T18:36:27.433Z,69.87
2023-03-11T18:38:57.167Z,69.84
2023-03-11T18:41:26.290Z,69.88
2023-03-11T18:43:58.634Z,69.37
2023-03-11T18:46:31.630Z,69.78
2023-03-11T18:49:01.981Z,69.95
2023-03-11T18:51:31.162Z,69.11
2023-03-11T18:54:00.332Z,69.42
2023-03-11T18:56:30.960Z,71.25
2023-03-11T18:58:59.392Z,71.38
2023-03-11T19:01:28.529Z,70.44
2023-03-11T19:03:58.642Z,69.63
2023-03-11T19:06:28.287Z,68.39
2023-03-11T19:08:57.851Z,70.07
2023-03-11T19:11:26.389Z,70.13
2023-03-11T19:13:54.851Z,70.62
2023-03-11T19:16:25.434Z,72.57
2023-03-11T19:18:55.279Z,71.75
2023-03-11T19:21:23.616Z,72.67
2023-03-11T19:23:55.055Z,72.06
2023-03-11T19:26:41.439Z,72.38
2023-03-11T19:29:12.244Z,72.65
2023-03-11T19:31:40.242Z,73.43
2023-03-11T19:34:07.793Z,72.64
2023-03-11T19:36:35.390Z,73.34
2023-03-11T19:39:03.754Z,75.09
2023-03-11T19:41:31.271Z,76.37
2023-03-11T19:43:59.361Z,77.53
2023-03-11T19:46:28.644Z,78.54
2023-03-11T19:48:56.885Z,80.24
2023-03-11T19:51:28.411Z,81.31
2023-03-11T19:53:58.343Z,83.16
2023-03-11T19:56:27.748Z,83.57
2023-03-11T19:58:56.857Z,83.58
2023-03-11T20:01:28.279Z,84.69
2023-03-11T20:03:56.151Z,85.33
2023-03-11T20:06:24.130Z,86.50
2023-03-11T20:08:51.831Z,86.94
2023-03-11T20:11:19.570Z,88.07
2023-03-11T20:13:48.589Z,88.82
2023-03-11T20:16:19.358Z,88.58
2023-03-11T20:18:51.578Z,89.21
2023-03-11T20:21:19.844Z,89.32
2023-03-11T20:23:49.055Z,88.58
2023-03-11T20:26:19.199Z,88.13
2023-03-11T20:28:47.181Z,89.04
2023-03-11T20:31:21.054Z,87.94
2023-03-11T20:33:51.189Z,88.23
2023-03-11T20:36:21.745Z,87.89
2023-03-11T20:38:51.342Z,87.87
2023-03-11T20:41:19.473Z,87.26
2023-03-11T20:43:47.621Z,87.21
2023-03-11T20:46:15.857Z,87.72
2023-03-11T20:48:44.292Z,88.23
2023-03-11T20:51:14.388Z,87.75
2023-03-11T20:53:43.092Z,88.76
2023-03-11T20:56:14.797Z,88.48
2023-03-11T20:58:44.549Z,87.75
2023-03-11T21:01:13.069Z,89.22
2023-03-11T21:03:40.654Z,89.25
2023-03-11T21:06:21.566Z,88.02
2023-03-11T21:08:50.289Z,88.52
2023-03-11T21:11:19.090Z,89.13
2023-03-11T21:13:47.341Z,90.10
2023-03-11T21:16:18.274Z,89.18
2023-03-11T21:18:49.292Z,89.75
2023-03-11T21:21:18.565Z,89.91
2023-03-11T21:23:47.876Z,89.98
2023-03-11T21:26:17.883Z,89.42
2023-03-11T21:28:46.963Z,89.83
2023-03-11T21:31:29.049Z,89.81
2023-03-11T21:33:59.404Z,88.53
2023-03-11T21:36:28.912Z,89.21
2023-03-11T21:38:56.972Z,89.18
2023-03-11T21:41:27.323Z,89.09
2023-03-11T21:43:56.502Z,89.08
2023-03-11T21:46:27.029Z,88.20
2023-03-11T21:48:55.124Z,88.85
2023-03-11T21:51:24.222Z,88.58
2023-03-11T21:53:52.010Z,89.37
2023-03-11T21:56:20.698Z,88.65
2023-03-11T21:58:49.953Z,87.15
2023-03-11T22:01:18.208Z,87.62
2023-03-11T22:03:47.392Z,86.04
2023-03-11T22:06:16.154Z,85.70
2023-03-11T22:08:44.008Z,86.08
2023-03-11T22:11:17.924Z,85.53
2023-03-11T22:13:47.260Z,86.20
2023-03-11T22:16:15.562Z,85.52
2023-03-11T22:18:44.168Z,85.51
2023-03-11T22:21:12.020Z,85.07
2023-03-11T22:23:40.157Z,84.84
2023-03-11T22:26:08.579Z,84.74
2023-03-11T22:28:36.099Z,84.39
2023-03-11T22:31:10.019Z,84.22
2023-03-11T22:33:38.260Z,85.06
2023-03-11T22:36:07.791Z,85.64
2023-03-11T22:38:36.969Z,85.36
2023-03-11T22:41:07.638Z,87.14
2023-03-11T22:43:36.126Z,88.18
2023-03-11T22:46:05.796Z,87.07
2023-03-11T22:48:33.941Z,87.75
2023-03-11T22:51:02.087Z,88.74
2023-03-11T22:53:30.328Z,88.01
2023-03-11T22:55:58.568Z,87.13
2023-03-11T22:58:26.283Z,87.29
2023-03-11T23:00:54.163Z,86.97
2023-03-11T23:03:21.724Z,85.28
2023-03-11T23:05:49.340Z,85.86
2023-03-11T23:08:17.450Z,84.59
2023-03-11T23:10:46.852Z,83.22
2023-03-11T23:13:15.683Z,82.99
2023-03-11T23:15:45.529Z,82.04
2023-03-11T23:18:15.869Z,82.33
2023-03-11T23:20:44.712Z,83.46
2023-03-11T23:23:13.507Z,82.85
2023-03-11T23:25:42.061Z,83.04
2023-03-11T23:28:09.645Z,83.05
2023-03-11T23:30:37.531Z,82.68
2023-03-11T23:33:06.008Z,82.64
2023-03-11T23:35:34.185Z,81.18
2023-03-11T23:38:02.151Z,79.63
2023-03-11T23:40:30.240Z,76.83
2023-03-11T23:42:58.183Z,74.20
2023-03-11T23:45:26.157Z,69.84
2023-03-11T23:47:53.884Z,67.19
2023-03-11T23:50:21.914Z,63.32
2023-03-11T23:52:50.284Z,60.51
2023-03-11T23:55:17.853Z,56.30
2023-03-11T23:57:45.762Z,54.90
